createdAt,value
2023-02-15T00:02:51.770Z,26.33
2023-02-15T00:06:06.412Z,26.58
2023-02-15T00:09:19.492Z,29.88
2023-02-15T00:12:31.756Z,30.63
2023-02-15T00:15:43.743Z,28.73
2023-02-15T00:18:57.849Z,29.80
2023-02-15T00:22:10.007Z,29.60
2023-02-15T00:25:22.209Z,29.58
2023-02-15T00:28:34.307Z,34.35
2023-02-15T00:31:46.992Z,30.58
2023-02-15T00:34:59.040Z,27.80
2023-02-15T00:38:11.069Z,32.18
2023-02-15T00:41:23.146Z,30.23
2023-02-15T00:44:35.245Z,26.43
2023-02-15T00:47:47.557Z,31.50
2023-02-15T00:51:03.861Z,29.88
2023-02-15T00:54:16.158Z,31.83
2023-02-15T00:57:28.176Z,29.93
2023-02-15T01:00:40.208Z,34.90
2023-02-15T01:03:52.890Z,30.20
2023-02-15T01:07:07.254Z,27.48
2023-02-15T01:10:19.370Z,30.65
2023-02-15T01:13:31.656Z,25.35
2023-02-15T01:16:43.789Z,25.08
2023-02-15T01:19:56.269Z,29.00
2023-02-15T01:23:08.200Z,27.08
2023-02-15T01:26:20.588Z,24.63
2023-02-15T01:29:32.763Z,25.43
2023-02-15T01:32:45.218Z,26.75
2023-02-15T01:36:03.113Z,28.95
2023-02-15T01:39:16.174Z,28.43
2023-02-15T01:42:32.466Z,30.60
2023-02-15T01:45:47.560Z,28.93
2023-02-15T01:49:05.462Z,24.85
2023-02-15T01:52:21.743Z,29.15
2023-02-15T01:55:39.996Z,27.75
2023-02-15T01:58:53.996Z,29.93
2023-02-15T02:02:08.956Z,27.00
2023-02-15T02:05:21.934Z,27.75
2023-02-15T02:08:35.009Z,26.88
2023-02-15T02:11:48.730Z,26.35
2023-02-15T02:15:02.096Z,30.75
2023-02-15T02:18:28.836Z,30.68
2023-02-15T02:22:36.012Z,34.45
2023-02-15T02:26:27.906Z,29.80
2023-02-15T02:30:32.682Z,35.15
2023-02-15T02:34:01.080Z,30.95
2023-02-15T02:37:20.314Z,29.58
2023-02-15T02:40:41.228Z,30.28
2023-02-15T02:44:01.969Z,35.55
2023-02-15T02:47:20.437Z,31.75
2023-02-15T02:50:35.741Z,33.58
2023-02-15T02:53:50.775Z,28.28
2023-02-15T02:57:07.123Z,32.53
2023-02-15T03:00:22.987Z,32.05
2023-02-15T03:03:40.067Z,32.55
2023-02-15T03:06:57.534Z,36.98
2023-02-15T03:10:13.209Z,38.08
2023-02-15T03:13:25.888Z,32.50
2023-02-15T03:16:40.296Z,32.10
2023-02-15T03:19:55.643Z,32.43
2023-02-15T03:23:11.850Z,34.28
2023-02-15T03:26:24.610Z,33.55
2023-02-15T03:29:38.863Z,39.70
2023-02-15T03:32:54.247Z,35.75
2023-02-15T03:36:12.766Z,29.63
2023-02-15T03:39:31.768Z,31.50
2023-02-15T03:42:46.421Z,30.88
2023-02-15T03:46:03.698Z,35.15
2023-02-15T03:49:21.001Z,34.75
2023-02-15T03:55:45.581Z,30.03
2023-02-15T03:59:12.142Z,34.18
2023-02-15T04:02:29.457Z,37.80
2023-02-15T04:05:41.671Z,40.08
2023-02-15T04:09:08.821Z,39.23
2023-02-15T04:12:20.797Z,38.65
2023-02-15T04:15:47.106Z,26.95
2023-02-15T04:19:15.022Z,27.95
2023-02-15T04:22:41.777Z,40.40
2023-02-15T04:25:53.983Z,34.80
2023-02-15T04:29:06.085Z,39.18
2023-02-15T04:32:18.331Z,35.73
2023-02-15T04:35:32.614Z,34.33
2023-02-15T04:38:44.651Z,32.68
2023-02-15T04:41:56.748Z,37.05
2023-02-15T04:45:10.011Z,40.88
2023-02-15T04:48:22.287Z,33.45
2023-02-15T04:51:34.808Z,37.38
2023-02-15T04:54:46.905Z,34.70
2023-02-15T04:57:59.014Z,34.70
2023-02-15T05:01:11.547Z,38.65
2023-02-15T05:04:23.764Z,42.80
2023-02-15T05:07:35.837Z,32.90
2023-02-15T05:10:48.166Z,37.10
2023-02-15T05:14:00.193Z,38.68
2023-02-15T05:17:12.105Z,37.28
2023-02-15T05:20:24.340Z,40.58
2023-02-15T05:23:36.210Z,31.75
2023-02-15T05:27:03.950Z,33.45
2023-02-15T05:30:19.902Z,40.40
2023-02-15T05:33:32.162Z,38.40
2023-02-15T05:36:44.129Z,39.58
2023-02-15T05:39:56.042Z,36.63
2023-02-15T05:43:07.947Z,36.95
2023-02-15T05:46:20.802Z,38.25
2023-02-15T05:49:32.911Z,47.30
2023-02-15T05:52:45.074Z,41.05
2023-02-15T05:55:59.390Z,38.20
2023-02-15T05:59:11.668Z,31.18
2023-02-15T06:02:23.969Z,32.90
2023-02-15T06:05:36.251Z,32.75
2023-02-15T06:08:48.436Z,38.50
2023-02-15T06:12:00.381Z,37.90
2023-02-15T06:15:15.094Z,38.08
2023-02-15T06:18:27.559Z,41.80
2023-02-15T06:21:39.592Z,41.00
2023-02-15T06:24:51.640Z,40.43
2023-02-15T06:28:03.621Z,43.63
2023-02-15T06:31:16.443Z,42.88
2023-02-15T06:34:28.613Z,35.05
2023-02-15T06:37:40.582Z,33.90
2023-02-15T06:40:52.513Z,39.48
2023-02-15T06:44:04.525Z,35.45
2023-02-15T06:47:16.685Z,38.10
2023-02-15T06:50:28.863Z,34.15
2023-02-15T06:53:42.183Z,35.53
2023-02-15T06:56:54.139Z,40.43
2023-02-15T07:00:07.090Z,34.10
2023-02-15T07:03:21.667Z,37.78
2023-02-15T07:06:37.970Z,37.83
2023-02-15T07:09:49.906Z,42.55
2023-02-15T07:13:02.065Z,30.30
2023-02-15T07:16:15.162Z,31.05
2023-02-15T07:19:27.217Z,35.23
2023-02-15T07:22:39.355Z,36.43
2023-02-15T07:25:51.284Z,34.85
2023-02-15T07:29:03.238Z,28.80
2023-02-15T07:32:15.363Z,32.23
2023-02-15T07:35:27.328Z,31.70
2023-02-15T07:38:43.495Z,34.83
2023-02-15T07:41:55.653Z,26.70
2023-02-15T07:45:08.007Z,26.00
2023-02-15T07:48:20.010Z,28.75
2023-02-15T07:51:32.081Z,29.90
2023-02-15T07:54:44.123Z,32.00
2023-02-15T07:57:58.047Z,32.75
2023-02-15T08:01:10.224Z,30.95
2023-02-15T08:04:22.262Z,24.88
2023-02-15T08:07:34.231Z,28.33
2023-02-15T08:11:00.887Z,26.28
2023-02-15T08:14:15.631Z,29.98
2023-02-15T08:17:27.557Z,35.58
2023-02-15T08:20:39.790Z,29.63
2023-02-15T08:23:52.067Z,33.00
2023-02-15T08:27:06.220Z,32.43
2023-02-15T08:30:21.699Z,34.48
2023-02-15T08:33:33.873Z,34.63
2023-02-15T08:36:46.290Z,35.50
2023-02-15T08:39:58.431Z,35.50
2023-02-15T08:43:10.438Z,32.50
2023-02-15T08:46:24.219Z,33.38
2023-02-15T08:49:36.749Z,36.68
2023-02-15T08:52:48.745Z,31.90
2023-02-15T08:56:06.057Z,27.98
2023-02-15T08:59:22.464Z,30.55
2023-02-15T09:02:34.622Z,42.68
2023-02-15T09:05:46.820Z,45.60
2023-02-15T09:08:59.873Z,30.50
2023-02-15T09:12:12.360Z,32.03
2023-02-15T09:15:24.601Z,31.90
2023-02-15T09:18:40.004Z,30.73
2023-02-15T09:21:52.716Z,29.93
2023-02-15T09:25:04.655Z,26.28
2023-02-15T09:28:16.695Z,28.88
2023-02-15T09:31:31.639Z,29.30
2023-02-15T09:34:43.887Z,25.85
2023-02-15T09:37:55.777Z,29.65
2023-02-15T09:41:20.513Z,29.23
2023-02-15T09:44:46.872Z,30.43
2023-02-15T09:48:31.612Z,31.63
2023-02-15T09:52:11.809Z,31.68
2023-02-15T09:55:43.052Z,29.50
2023-02-15T09:59:01.965Z,35.83
2023-02-15T10:02:28.588Z,29.68
2023-02-15T10:05:49.586Z,36.73
2023-02-15T10:09:27.734Z,34.03
2023-02-15T10:13:08.599Z,33.65
2023-02-15T10:16:28.314Z,37.00
2023-02-15T10:19:50.686Z,36.98
2023-02-15T10:23:19.231Z,36.23
2023-02-15T10:26:36.864Z,36.73
2023-02-15T10:29:56.945Z,36.68
2023-02-15T10:33:13.060Z,40.10
2023-02-15T10:36:38.118Z,37.55
2023-02-15T10:39:59.876Z,38.03
2023-02-15T10:43:45.491Z,40.78
2023-02-15T10:47:25.185Z,36.50
2023-02-15T10:50:52.990Z,37.10
2023-02-15T10:54:19.251Z,38.13
2023-02-15T10:57:37.876Z,36.58
2023-02-15T11:00:57.456Z,36.50
2023-02-15T11:04:56.799Z,39.48
2023-02-15T11:08:13.952Z,35.90
2023-02-15T11:14:50.599Z,36.88
2023-02-15T11:18:07.732Z,35.25
2023-02-15T11:21:25.258Z,39.25
2023-02-15T11:24:41.577Z,33.50
2023-02-15T11:27:55.592Z,36.80
2023-02-15T11:31:18.349Z,34.78
2023-02-15T11:34:36.915Z,31.85
2023-02-15T11:37:54.050Z,33.63
2023-02-15T11:41:10.895Z,31.50
2023-02-15T11:44:28.228Z,38.18
2023-02-15T11:47:40.349Z,32.75
2023-02-15T11:50:52.926Z,30.55
2023-02-15T11:54:05.981Z,33.33
2023-02-15T11:57:25.431Z,31.38
2023-02-15T12:00:44.850Z,29.95
2023-02-15T12:04:00.402Z,32.08
2023-02-15T12:07:23.233Z,30.05
2023-02-15T12:10:40.086Z,33.43
2023-02-15T12:14:07.635Z,32.33
2023-02-15T12:17:23.272Z,34.05
2023-02-15T12:20:39.016Z,32.10
2023-02-15T12:23:57.399Z,30.40
2023-02-15T12:27:16.270Z,31.48
2023-02-15T12:30:35.449Z,31.65
2023-02-15T12:33:50.867Z,34.48
2023-02-15T12:37:07.466Z,34.40
2023-02-15T12:40:31.887Z,33.25
2023-02-15T12:43:46.304Z,33.95
2023-02-15T12:47:08.703Z,31.50
2023-02-15T12:50:35.885Z,33.98
2023-02-15T12:53:47.235Z,35.93
2023-02-15T12:56:59.517Z,34.05
2023-02-15T13:00:21.786Z,36.63
2023-02-15T13:03:34.080Z,39.55
2023-02-15T13:06:53.864Z,35.03
2023-02-15T13:10:06.275Z,35.50
2023-02-15T13:13:25.832Z,34.55
2023-02-15T13:16:42.435Z,35.05
2023-02-15T13:19:59.180Z,37.73
2023-02-15T13:23:17.286Z,35.90
2023-02-15T13:26:34.956Z,35.75
2023-02-15T13:29:52.282Z,38.45
2023-02-15T13:33:09.423Z,36.80
2023-02-15T13:39:42.205Z,39.00
2023-02-15T13:43:00.231Z,36.50
2023-02-15T13:46:30.323Z,36.28
2023-02-15T13:49:58.797Z,37.18
2023-02-15T13:53:27.946Z,34.65
2023-02-15T13:56:52.444Z,38.60
2023-02-15T14:00:21.439Z,39.50
2023-02-15T14:04:19.350Z,41.20
2023-02-15T14:07:50.595Z,39.40
2023-02-15T14:11:10.306Z,39.38
2023-02-15T14:14:51.758Z,41.45
2023-02-15T14:18:20.184Z,37.28
2023-02-15T14:21:38.201Z,40.18
2023-02-15T14:24:56.837Z,36.30
2023-02-15T14:28:15.148Z,38.48
2023-02-15T14:31:33.229Z,36.73
2023-02-15T14:34:52.222Z,36.88
2023-02-15T14:38:09.988Z,35.63
2023-02-15T14:41:26.934Z,34.30
2023-02-15T14:44:43.972Z,40.03
2023-02-15T14:48:03.540Z,35.53
2023-02-15T14:51:17.541Z,35.13
2023-02-15T14:55:06.557Z,39.25
2023-02-15T14:58:21.330Z,39.63
2023-02-15T15:01:38.370Z,40.63
2023-02-15T15:05:00.307Z,44.10
2023-02-15T15:08:19.307Z,39.73
2023-02-15T15:11:51.179Z,40.38
2023-02-15T15:15:03.539Z,39.98
2023-02-15T15:18:16.414Z,45.05
2023-02-15T15:22:08.969Z,42.30
2023-02-15T15:25:51.560Z,44.95
2023-02-15T15:29:06.932Z,37.80
2023-02-15T15:36:01.285Z,44.53
2023-02-15T15:39:26.106Z,44.08
2023-02-15T15:42:56.756Z,45.25
2023-02-15T15:47:04.511Z,46.18
2023-02-15T15:50:24.092Z,48.13
2023-02-15T15:53:43.358Z,45.50
2023-02-15T15:57:00.534Z,42.38
2023-02-15T16:03:37.126Z,49.65
2023-02-15T16:06:49.888Z,47.85
2023-02-15T16:10:08.340Z,49.10
2023-02-15T16:13:23.202Z,49.88
2023-02-15T16:16:37.929Z,47.83
2023-02-15T16:19:51.275Z,53.75
2023-02-15T16:23:15.375Z,54.13
2023-02-15T16:26:48.375Z,47.83
2023-02-15T16:30:00.598Z,48.53
2023-02-15T16:33:21.199Z,47.00
2023-02-15T16:36:35.121Z,66.90
2023-02-15T16:39:51.054Z,49.23
2023-02-15T16:43:07.654Z,58.30
2023-02-15T16:46:23.679Z,58.23
2023-02-15T16:49:40.547Z,58.70
2023-02-15T16:52:53.175Z,54.60
2023-02-15T16:56:09.907Z,59.85
2023-02-15T16:59:36.093Z,56.78
2023-02-15T17:02:56.322Z,54.98
2023-02-15T17:06:09.804Z,61.43
2023-02-15T17:09:26.745Z,60.05
2023-02-15T17:16:36.861Z,66.43
2023-02-15T17:23:05.144Z,72.78
2023-02-15T17:26:24.764Z,67.63
2023-02-15T17:29:44.804Z,60.53
2023-02-15T17:33:04.311Z,64.55
2023-02-15T17:36:22.230Z,62.00
2023-02-15T17:39:34.456Z,67.20
2023-02-15T17:45:52.580Z,63.55
2023-02-15T18:10:55.521Z,64.68
2023-02-15T20:04:42.032Z,94.85
2023-02-15T20:10:55.878Z,94.70
2023-02-15T20:14:19.143Z,103.53
2023-02-15T20:17:36.497Z,111.18
2023-02-15T20:20:53.208Z,101.48
2023-02-15T20:24:06.803Z,105.40
2023-02-15T20:27:23.121Z,112.85
2023-02-15T20:30:37.056Z,110.78
2023-02-15T20:33:49.282Z,120.15
2023-02-15T20:37:01.664Z,109.00
2023-02-15T20:40:26.606Z,106.43
2023-02-15T20:43:39.139Z,108.23
2023-02-15T20:46:51.454Z,105.40
2023-02-15T20:50:03.801Z,100.95
2023-02-15T20:53:20.517Z,97.13
2023-02-15T20:56:34.881Z,105.20
2023-02-15T20:59:54.825Z,93.73
2023-02-15T21:03:11.687Z,105.38
2023-02-15T21:06:24.785Z,99.70
2023-02-15T21:12:37.897Z,92.33
2023-02-15T21:21:51.732Z,93.85
2023-02-15T22:08:48.741Z,106.80
2023-02-15T22:12:02.028Z,115.05
2023-02-15T22:15:23.703Z,114.85
2023-02-15T22:18:38.212Z,119.43
2023-02-15T22:21:50.233Z,118.05
2023-02-15T22:25:02.182Z,126.78
2023-02-15T22:28:20.205Z,122.35
2023-02-15T22:31:32.800Z,120.65
2023-02-15T22:34:46.057Z,121.90
2023-02-15T22:37:58.064Z,121.65
2023-02-15T22:41:11.125Z,133.88
2023-02-15T22:44:28.334Z,124.03
2023-02-15T22:47:43.073Z,128.53
2023-02-15T22:50:55.526Z,126.00
2023-02-15T22:54:07.542Z,129.48
2023-02-15T22:57:27.178Z,143.18
2023-02-15T23:00:44.087Z,129.55
2023-02-15T23:03:56.124Z,115.05
2023-02-15T23:07:10.028Z,129.40
2023-02-15T23:10:26.394Z,145.35
2023-02-15T23:13:39.942Z,145.48
2023-02-15T23:16:52.081Z,143.08
2023-02-15T23:20:04.323Z,139.35
2023-02-15T23:23:19.225Z,137.90
2023-02-15T23:26:33.917Z,140.58
2023-02-15T23:29:48.133Z,136.38
2023-02-15T23:33:02.479Z,140.18
2023-02-15T23:36:32.350Z,133.40
2023-02-15T23:39:58.816Z,139.40
2023-02-15T23:43:13.378Z,134.20
2023-02-15T23:46:43.902Z,145.03
2023-02-15T23:49:56.040Z,137.43
2023-02-15T23:53:08.351Z,137.55
2023-02-15T23:56:22.105Z,140.43
2023-02-15T23:59:36.782Z,140.60
